sensor_id;sensor_type;location;lat;lon;timestamp;pressure;altitude;pressure_sealevel;temperature;humidity
77749;BME280;66938;52.084;5.228;2023-04-25T00:00:48;101225.0;;;6.93;76.55
77749;BME280;66938;52.084;5.228;2023-04-25T00:02:24;101225.0;;;6.99;76.84
77749;BME280;66938;52.084;5.228;2023-04-25T00:05:37;101230.0;;;7.05;76.73
77749;BME280;66938;52.084;5.228;2023-04-25T00:07:13;101236.0;;;7.1;76.55
77749;BME280;66938;52.084;5.228;2023-04-25T00:08:49;101238.0;;;7.11;76.27
77749;BME280;66938;52.084;5.228;2023-04-25T00:12:02;101243.0;;;7.16;76.3
77749;BME280;66938;52.084;5.228;2023-04-25T00:13:38;101242.0;;;7.18;76.83
77749;BME280;66938;52.084;5.228;2023-04-25T00:15:14;101242.0;;;7.17;76.8
77749;BME280;66938;52.084;5.228;2023-04-25T00:18:26;101241.0;;;7.24;76.56
77749;BME280;66938;52.084;5.228;2023-04-25T00:20:03;101249.0;;;7.28;76.74
77749;BME280;66938;52.084;5.228;2023-04-25T00:21:38;101249.0;;;7.32;76.53
77749;BME280;66938;52.084;5.228;2023-04-25T00:24:51;101243.0;;;7.35;76.36
77749;BME280;66938;52.084;5.228;2023-04-25T00:26:28;101233.0;;;7.36;76.05
77749;BME280;66938;52.084;5.228;2023-04-25T00:28:05;101235.0;;;7.34;76.61
77749;BME280;66938;52.084;5.228;2023-04-25T00:29:41;101240.0;;;7.33;77.2
77749;BME280;66938;52.084;5.228;2023-04-25T00:32:53;101243.0;;;7.3;76.0
77749;BME280;66938;52.084;5.228;2023-04-25T00:34:29;101243.0;;;7.34;75.66
77749;BME280;66938;52.084;5.228;2023-04-25T00:36:07;101242.0;;;7.27;76.13
77749;BME280;66938;52.084;5.228;2023-04-25T00:39:19;101245.0;;;7.16;76.27
77749;BME280;66938;52.084;5.228;2023-04-25T00:40:56;101250.0;;;7.09;76.08
77749;BME280;66938;52.084;5.228;2023-04-25T00:42:32;101248.0;;;7.1;76.06
77749;BME280;66938;52.084;5.228;2023-04-25T00:45:47;101247.0;;;7.02;76.97
77749;BME280;66938;52.084;5.228;2023-04-25T00:47:23;101249.0;;;6.98;77.2
77749;BME280;66938;52.084;5.228;2023-04-25T00:49:00;101247.0;;;6.96;77.22
77749;BME280;66938;52.084;5.228;2023-04-25T00:50:37;101249.0;;;6.89;77.08
77749;BME280;66938;52.084;5.228;2023-04-25T00:53:50;101249.0;;;6.91;76.86
77749;BME280;66938;52.084;5.228;2023-04-25T00:55:27;101248.0;;;6.86;76.61
77749;BME280;66938;52.084;5.228;2023-04-25T00:57:03;101249.0;;;6.77;77.0
77749;BME280;66938;52.084;5.228;2023-04-25T01:00:17;101248.0;;;6.75;77.08
77749;BME280;66938;52.084;5.228;2023-04-25T01:01:53;101245.0;;;6.7;76.83
77749;BME280;66938;52.084;5.228;2023-04-25T01:03:31;101243.0;;;6.67;77.14
77749;BME280;66938;52.084;5.228;2023-04-25T01:05:09;101246.0;;;6.48;77.42
77749;BME280;66938;52.084;5.228;2023-04-25T01:08:23;101245.0;;;6.45;77.36
77749;BME280;66938;52.084;5.228;2023-04-25T01:09:59;101248.0;;;6.39;77.41
77749;BME280;66938;52.084;5.228;2023-04-25T01:11:35;101249.0;;;6.29;77.67
77749;BME280;66938;52.084;5.228;2023-04-25T01:14:47;101255.0;;;6.34;77.55
77749;BME280;66938;52.084;5.228;2023-04-25T01:16:24;101252.0;;;6.33;77.56
77749;BME280;66938;52.084;5.228;2023-04-25T01:18:00;101256.0;;;6.27;77.92
77749;BME280;66938;52.084;5.228;2023-04-25T01:21:13;101253.0;;;6.23;78.2
77749;BME280;66938;52.084;5.228;2023-04-25T01:22:50;101255.0;;;6.28;77.87
77749;BME280;66938;52.084;5.228;2023-04-25T01:24:26;101251.0;;;6.19;78.34
77749;BME280;66938;52.084;5.228;2023-04-25T01:26:03;101253.0;;;6.14;78.63
77749;BME280;66938;52.084;5.228;2023-04-25T01:29:18;101257.0;;;6.1;78.66
77749;BME280;66938;52.084;5.228;2023-04-25T01:30:56;101256.0;;;6.08;78.62
77749;BME280;66938;52.084;5.228;2023-04-25T01:32:33;101261.0;;;6.07;78.77
77749;BME280;66938;52.084;5.228;2023-04-25T01:35:45;101269.0;;;6.02;79.09
77749;BME280;66938;52.084;5.228;2023-04-25T01:37:22;101267.0;;;5.98;79.11
77749;BME280;66938;52.084;5.228;2023-04-25T01:38:58;101266.0;;;6.01;79.05
77749;BME280;66938;52.084;5.228;2023-04-25T01:42:18;101274.0;;;5.94;79.16
77749;BME280;66938;52.084;5.228;2023-04-25T01:43:54;101273.0;;;5.92;79.17
77749;BME280;66938;52.084;5.228;2023-04-25T01:45:30;101277.0;;;5.85;79.24
77749;BME280;66938;52.084;5.228;2023-04-25T01:47:06;101273.0;;;5.78;79.39
77749;BME280;66938;52.084;5.228;2023-04-25T01:50:19;101274.0;;;5.77;79.37
77749;BME280;66938;52.084;5.228;2023-04-25T01:51:55;101280.0;;;5.75;79.27
77749;BME280;66938;52.084;5.228;2023-04-25T01:53:31;101282.0;;;5.77;79.02
77749;BME280;66938;52.084;5.228;2023-04-25T01:56:49;101282.0;;;5.72;79.17
77749;BME280;66938;52.084;5.228;2023-04-25T01:58:26;101282.0;;;5.7;79.22
77749;BME280;66938;52.084;5.228;2023-04-25T02:00:05;101288.0;;;5.7;79.2
77749;BME280;66938;52.084;5.228;2023-04-25T02:01:42;101293.0;;;5.69;79.19
77749;BME280;66938;52.084;5.228;2023-04-25T02:04:55;101291.0;;;5.69;79.36
77749;BME280;66938;52.084;5.228;2023-04-25T02:06:31;101298.0;;;5.69;79.47
77749;BME280;66938;52.084;5.228;2023-04-25T02:08:08;101295.0;;;5.65;79.56
77749;BME280;66938;52.084;5.228;2023-04-25T02:11:21;101293.0;;;5.65;79.42
77749;BME280;66938;52.084;5.228;2023-04-25T02:12:57;101296.0;;;5.66;79.44
77749;BME280;66938;52.084;5.228;2023-04-25T02:14:33;101303.0;;;5.68;79.48
77749;BME280;66938;52.084;5.228;2023-04-25T02:17:46;101298.0;;;5.65;79.72
77749;BME280;66938;52.084;5.228;2023-04-25T02:19:22;101296.0;;;5.6;80.05
77749;BME280;66938;52.084;5.228;2023-04-25T02:20:59;101295.0;;;5.64;80.03
77749;BME280;66938;52.084;5.228;2023-04-25T02:22:35;101299.0;;;5.69;79.88
77749;BME280;66938;52.084;5.228;2023-04-25T02:25:48;101295.0;;;5.73;79.78
77749;BME280;66938;52.084;5.228;2023-04-25T02:27:24;101296.0;;;5.68;79.92
77749;BME280;66938;52.084;5.228;2023-04-25T02:29:01;101296.0;;;5.65;79.95
77749;BME280;66938;52.084;5.228;2023-04-25T02:32:13;101302.0;;;5.64;79.81
77749;BME280;66938;52.084;5.228;2023-04-25T02:33:49;101300.0;;;5.63;79.67
77749;BME280;66938;52.084;5.228;2023-04-25T02:35:26;101303.0;;;5.62;79.61
77749;BME280;66938;52.084;5.228;2023-04-25T02:38:38;101305.0;;;5.65;79.41
77749;BME280;66938;52.084;5.228;2023-04-25T02:40:15;101303.0;;;5.69;79.47
77749;BME280;66938;52.084;5.228;2023-04-25T02:41:52;101295.0;;;5.66;79.56
77749;BME280;66938;52.084;5.228;2023-04-25T02:43:28;101303.0;;;5.66;79.69
77749;BME280;66938;52.084;5.228;2023-04-25T02:46:41;101300.0;;;5.7;79.55
77749;BME280;66938;52.084;5.228;2023-04-25T02:48:17;101300.0;;;5.68;79.42
77749;BME280;66938;52.084;5.228;2023-04-25T02:49:53;101301.0;;;5.7;79.44
77749;BME280;66938;52.084;5.228;2023-04-25T02:53:05;101299.0;;;5.75;79.38
77749;BME280;66938;52.084;5.228;2023-04-25T02:54:42;101297.0;;;5.83;79.19
77749;BME280;66938;52.084;5.228;2023-04-25T02:56:17;101296.0;;;5.81;78.91
77749;BME280;66938;52.084;5.228;2023-04-25T02:59:30;101297.0;;;5.87;78.97
77749;BME280;66938;52.084;5.228;2023-04-25T03:01:06;101298.0;;;5.84;79.14
77749;BME280;66938;52.084;5.228;2023-04-25T03:02:42;101303.0;;;5.85;79.19
77749;BME280;66938;52.084;5.228;2023-04-25T03:05:54;101301.0;;;5.85;78.87
77749;BME280;66938;52.084;5.228;2023-04-25T03:07:30;101316.0;;;5.87;78.83
77749;BME280;66938;52.084;5.228;2023-04-25T03:09:06;101315.0;;;5.87;78.86
77749;BME280;66938;52.084;5.228;2023-04-25T03:10:43;101313.0;;;5.92;79.03
77749;BME280;66938;52.084;5.228;2023-04-25T03:13:56;101315.0;;;5.93;79.3
77749;BME280;66938;52.084;5.228;2023-04-25T03:15:32;101310.0;;;5.98;79.41
77749;BME280;66938;52.084;5.228;2023-04-25T03:17:08;101313.0;;;5.96;79.36
77749;BME280;66938;52.084;5.228;2023-04-25T03:20:21;101314.0;;;6.01;79.27
77749;BME280;66938;52.084;5.228;2023-04-25T03:21:57;101320.0;;;6.05;79.05
77749;BME280;66938;52.084;5.228;2023-04-25T03:23:33;101320.0;;;6.14;78.89
77749;BME280;66938;52.084;5.228;2023-04-25T03:26:45;101323.0;;;6.18;78.66
77749;BME280;66938;52.084;5.228;2023-04-25T03:28:21;101326.0;;;6.16;78.78
77749;BME280;66938;52.084;5.228;2023-04-25T03:29:58;101330.0;;;6.24;78.52
77749;BME280;66938;52.084;5.228;2023-04-25T03:31:34;101340.0;;;6.25;78.66
77749;BME280;66938;52.084;5.228;2023-04-25T03:34:46;101340.0;;;6.2;78.11
77749;BME280;66938;52.084;5.228;2023-04-25T03:36:23;101341.0;;;6.2;77.72
77749;BME280;66938;52.084;5.228;2023-04-25T03:37:59;101330.0;;;6.21;77.08
77749;BME280;66938;52.084;5.228;2023-04-25T03:41:12;101317.0;;;6.21;75.94
77749;BME280;66938;52.084;5.228;2023-04-25T03:42:48;101320.0;;;6.19;76.42
77749;BME280;66938;52.084;5.228;2023-04-25T03:44:24;101321.0;;;6.22;76.33
77749;BME280;66938;52.084;5.228;2023-04-25T03:47:36;101318.0;;;6.29;75.61
77749;BME280;66938;52.084;5.228;2023-04-25T03:49:13;101320.0;;;6.3;75.42
77749;BME280;66938;52.084;5.228;2023-04-25T03:50:49;101321.0;;;6.29;75.11
77749;BME280;66938;52.084;5.228;2023-04-25T03:54:01;101319.0;;;6.33;75.06
77749;BME280;66938;52.084;5.228;2023-04-25T03:55:37;101327.0;;;6.34;75.36
77749;BME280;66938;52.084;5.228;2023-04-25T03:57:13;101326.0;;;6.33;75.56
77749;BME280;66938;52.084;5.228;2023-04-25T03:58:49;101327.0;;;6.3;75.7
77749;BME280;66938;52.084;5.228;2023-04-25T04:02:01;101333.0;;;6.25;75.45
77749;BME280;66938;52.084;5.228;2023-04-25T04:03:38;101335.0;;;6.21;75.41
77749;BME280;66938;52.084;5.228;2023-04-25T04:05:14;101341.0;;;6.21;74.58
77749;BME280;66938;52.084;5.228;2023-04-25T04:08:26;101344.0;;;6.25;74.08
77749;BME280;66938;52.084;5.228;2023-04-25T04:10:02;101347.0;;;6.26;73.53
77749;BME280;66938;52.084;5.228;2023-04-25T04:11:38;101350.0;;;6.14;73.98
77749;BME280;66938;52.084;5.228;2023-04-25T04:14:50;101347.0;;;6.24;73.8
77749;BME280;66938;52.084;5.228;2023-04-25T04:16:27;101350.0;;;6.19;73.99
77749;BME280;66938;52.084;5.228;2023-04-25T04:18:03;101350.0;;;6.2;73.83
77749;BME280;66938;52.084;5.228;2023-04-25T04:21:15;101359.0;;;6.23;73.94
77749;BME280;66938;52.084;5.228;2023-04-25T04:22:51;101358.0;;;6.21;74.41
77749;BME280;66938;52.084;5.228;2023-04-25T04:24:27;101365.0;;;6.16;74.22
77749;BME280;66938;52.084;5.228;2023-04-25T04:26:03;101368.0;;;6.17;73.55
77749;BME280;66938;52.084;5.228;2023-04-25T04:29:17;101367.0;;;6.11;74.02
77749;BME280;66938;52.084;5.228;2023-04-25T04:30:53;101371.0;;;6.1;73.69
77749;BME280;66938;52.084;5.228;2023-04-25T04:32:29;101369.0;;;6.05;74.08
77749;BME280;66938;52.084;5.228;2023-04-25T04:35:41;101368.0;;;6.11;74.91
77749;BME280;66938;52.084;5.228;2023-04-25T04:37:18;101371.0;;;6.09;74.66
77749;BME280;66938;52.084;5.228;2023-04-25T04:38:53;101372.0;;;6.12;75.2
77749;BME280;66938;52.084;5.228;2023-04-25T04:42:06;101376.0;;;6.11;75.38
77749;BME280;66938;52.084;5.228;2023-04-25T04:43:43;101378.0;;;6.16;74.97
77749;BME280;66938;52.084;5.228;2023-04-25T04:45:19;101380.0;;;6.16;74.83
77749;BME280;66938;52.084;5.228;2023-04-25T04:46:55;101386.0;;;6.16;74.19
77749;BME280;66938;52.084;5.228;2023-04-25T04:50:10;101386.0;;;6.25;73.62
77749;BME280;66938;52.084;5.228;2023-04-25T04:51:46;101386.0;;;6.25;73.77
77749;BME280;66938;52.084;5.228;2023-04-25T04:53:22;101385.0;;;6.24;74.49
77749;BME280;66938;52.084;5.228;2023-04-25T04:56:35;101386.0;;;6.3;74.02
77749;BME280;66938;52.084;5.228;2023-04-25T04:58:11;101389.0;;;6.33;73.47
77749;BME280;66938;52.084;5.228;2023-04-25T04:59:47;101391.0;;;6.39;73.72
77749;BME280;66938;52.084;5.228;2023-04-25T05:03:00;101395.0;;;6.44;73.84
77749;BME280;66938;52.084;5.228;2023-04-25T05:04:36;101399.0;;;6.46;73.97
77749;BME280;66938;52.084;5.228;2023-04-25T05:06:13;101397.0;;;6.44;74.08
77749;BME280;66938;52.084;5.228;2023-04-25T05:07:49;101403.0;;;6.5;74.53
77749;BME280;66938;52.084;5.228;2023-04-25T05:11:02;101412.0;;;6.52;74.02
77749;BME280;66938;52.084;5.228;2023-04-25T05:12:38;101410.0;;;6.59;73.58
77749;BME280;66938;52.084;5.228;2023-04-25T05:14:14;101410.0;;;6.6;73.89
77749;BME280;66938;52.084;5.228;2023-04-25T05:17:27;101413.0;;;6.63;73.83
77749;BME280;66938;52.084;5.228;2023-04-25T05:19:03;101412.0;;;6.7;73.84
77749;BME280;66938;52.084;5.228;2023-04-25T05:20:39;101407.0;;;6.61;73.16
77749;BME280;66938;52.084;5.228;2023-04-25T05:23:51;101410.0;;;6.66;73.38
77749;BME280;66938;52.084;5.228;2023-04-25T05:25:27;101408.0;;;6.71;73.17
77749;BME280;66938;52.084;5.228;2023-04-25T05:27:03;101410.0;;;6.77;73.08
77749;BME280;66938;52.084;5.228;2023-04-25T05:30:15;101415.0;;;6.83;73.27
77749;BME280;66938;52.084;5.228;2023-04-25T05:31:52;101422.0;;;6.79;72.66
77749;BME280;66938;52.084;5.228;2023-04-25T05:33:28;101425.0;;;6.84;71.27
77749;BME280;66938;52.084;5.228;2023-04-25T05:35:05;101425.0;;;6.88;71.59
77749;BME280;66938;52.084;5.228;2023-04-25T05:38:17;101430.0;;;6.94;71.47
77749;BME280;66938;52.084;5.228;2023-04-25T05:39:53;101430.0;;;6.97;70.64
77749;BME280;66938;52.084;5.228;2023-04-25T05:41:29;101430.0;;;7.01;70.64
77749;BME280;66938;52.084;5.228;2023-04-25T05:44:42;101427.0;;;7.06;70.33
77749;BME280;66938;52.084;5.228;2023-04-25T05:46:18;101434.0;;;7.11;69.16
77749;BME280;66938;52.084;5.228;2023-04-25T05:47:54;101434.0;;;7.12;69.89
77749;BME280;66938;52.084;5.228;2023-04-25T05:51:06;101441.0;;;7.15;68.94
77749;BME280;66938;52.084;5.228;2023-04-25T05:52:44;101443.0;;;7.18;69.55
77749;BME280;66938;52.084;5.228;2023-04-25T05:54:20;101445.0;;;7.24;69.34
77749;BME280;66938;52.084;5.228;2023-04-25T05:55:55;101442.0;;;7.27;68.33
77749;BME280;66938;52.084;5.228;2023-04-25T05:59:07;101442.0;;;7.32;67.97
77749;BME280;66938;52.084;5.228;2023-04-25T06:00:43;101443.0;;;7.37;67.14
77749;BME280;66938;52.084;5.228;2023-04-25T06:02:20;101445.0;;;7.43;67.99
77749;BME280;66938;52.084;5.228;2023-04-25T06:05:33;101449.0;;;7.46;68.41
77749;BME280;66938;52.084;5.228;2023-04-25T06:07:09;101456.0;;;7.46;68.99
77749;BME280;66938;52.084;5.228;2023-04-25T06:08:45;101462.0;;;7.5;68.74
77749;BME280;66938;52.084;5.228;2023-04-25T06:11:57;101463.0;;;7.49;68.27
77749;BME280;66938;52.084;5.228;2023-04-25T06:13:34;101465.0;;;7.55;69.47
77749;BME280;66938;52.084;5.228;2023-04-25T06:15:10;101465.0;;;7.57;67.91
77749;BME280;66938;52.084;5.228;2023-04-25T06:18:22;101468.0;;;7.6;67.37
77749;BME280;66938;52.084;5.228;2023-04-25T06:19:58;101471.0;;;7.64;66.62
77749;BME280;66938;52.084;5.228;2023-04-25T06:21:34;101473.0;;;7.72;66.66
77749;BME280;66938;52.084;5.228;2023-04-25T06:23:10;101476.0;;;7.79;67.58
77749;BME280;66938;52.084;5.228;2023-04-25T06:26:24;101480.0;;;7.86;67.06
77749;BME280;66938;52.084;5.228;2023-04-25T06:28:00;101469.0;;;7.9;66.77
77749;BME280;66938;52.084;5.228;2023-04-25T06:29:36;101473.0;;;7.96;66.59
77749;BME280;66938;52.084;5.228;2023-04-25T06:32:48;101474.0;;;7.99;66.25
77749;BME280;66938;52.084;5.228;2023-04-25T06:34:24;101475.0;;;7.98;65.19
77749;BME280;66938;52.084;5.228;2023-04-25T06:36:00;101478.0;;;8.02;64.94
77749;BME280;66938;52.084;5.228;2023-04-25T06:39:13;101482.0;;;8.0;66.3
77749;BME280;66938;52.084;5.228;2023-04-25T06:40:49;101484.0;;;8.0;64.83
77749;BME280;66938;52.084;5.228;2023-04-25T06:42:25;101487.0;;;7.97;64.83
77749;BME280;66938;52.084;5.228;2023-04-25T06:44:01;101485.0;;;8.01;65.6
77749;BME280;66938;52.084;5.228;2023-04-25T06:47:14;101491.0;;;7.95;64.63
77749;BME280;66938;52.084;5.228;2023-04-25T06:48:51;101497.0;;;7.97;65.77
77749;BME280;66938;52.084;5.228;2023-04-25T06:50:27;101499.0;;;7.95;66.13
77749;BME280;66938;52.084;5.228;2023-04-25T06:53:39;101498.0;;;8.0;66.05
77749;BME280;66938;52.084;5.228;2023-04-25T06:55:16;101499.0;;;8.02;66.85
77749;BME280;66938;52.084;5.228;2023-04-25T06:56:52;101499.0;;;8.0;65.63
77749;BME280;66938;52.084;5.228;2023-04-25T07:00:07;101500.0;;;8.02;65.23
77749;BME280;66938;52.084;5.228;2023-04-25T07:01:44;101503.0;;;7.99;64.74
77749;BME280;66938;52.084;5.228;2023-04-25T07:03:20;101507.0;;;8.08;66.03
77749;BME280;66938;52.084;5.228;2023-04-25T07:04:57;101511.0;;;8.1;64.52
77749;BME280;66938;52.084;5.228;2023-04-25T07:08:09;101514.0;;;8.18;65.22
77749;BME280;66938;52.084;5.228;2023-04-25T07:09:45;101512.0;;;8.24;64.97
77749;BME280;66938;52.084;5.228;2023-04-25T07:11:21;101516.0;;;8.36;65.97
77749;BME280;66938;52.084;5.228;2023-04-25T07:14:33;101519.0;;;8.42;65.81
77749;BME280;66938;52.084;5.228;2023-04-25T07:16:10;101516.0;;;8.55;63.76
77749;BME280;66938;52.084;5.228;2023-04-25T07:17:46;101516.0;;;8.69;63.82
77749;BME280;66938;52.084;5.228;2023-04-25T07:20:58;101522.0;;;8.76;63.24
77749;BME280;66938;52.084;5.228;2023-04-25T07:22:34;101523.0;;;8.89;64.22
77749;BME280;66938;52.084;5.228;2023-04-25T07:24:10;101527.0;;;8.96;61.15
77749;BME280;66938;52.084;5.228;2023-04-25T07:27:22;101528.0;;;8.97;62.09
77749;BME280;66938;52.084;5.228;2023-04-25T07:28:59;101530.0;;;9.05;62.8
77749;BME280;66938;52.084;5.228;2023-04-25T07:30:35;101528.0;;;9.03;61.66
77749;BME280;66938;52.084;5.228;2023-04-25T07:32:11;101532.0;;;9.06;61.6
77749;BME280;66938;52.084;5.228;2023-04-25T07:35:23;101537.0;;;9.14;61.61
77749;BME280;66938;52.084;5.228;2023-04-25T07:36:59;101540.0;;;9.14;61.61
77749;BME280;66938;52.084;5.228;2023-04-25T07:38:35;101543.0;;;9.09;60.11
77749;BME280;66938;52.084;5.228;2023-04-25T07:41:49;101541.0;;;9.01;59.79
77749;BME280;66938;52.084;5.228;2023-04-25T07:43:25;101542.0;;;8.93;60.46
77749;BME280;66938;52.084;5.228;2023-04-25T07:45:01;101541.0;;;8.9;59.64
77749;BME280;66938;52.084;5.228;2023-04-25T07:48:17;101541.0;;;8.91;59.76
77749;BME280;66938;52.084;5.228;2023-04-25T07:49:53;101546.0;;;8.91;60.2
77749;BME280;66938;52.084;5.228;2023-04-25T07:51:29;101555.0;;;8.99;60.41
77749;BME280;66938;52.084;5.228;2023-04-25T07:53:05;101557.0;;;8.98;58.67
77749;BME280;66938;52.084;5.228;2023-04-25T07:56:18;101556.0;;;8.96;57.86
77749;BME280;66938;52.084;5.228;2023-04-25T07:57:54;101555.0;;;8.98;57.68
77749;BME280;66938;52.084;5.228;2023-04-25T07:59:30;101559.0;;;9.06;58.04
77749;BME280;66938;52.084;5.228;2023-04-25T08:02:43;101565.0;;;9.09;57.73
77749;BME280;66938;52.084;5.228;2023-04-25T08:04:18;101562.0;;;9.08;57.29
77749;BME280;66938;52.084;5.228;2023-04-25T08:05:54;101566.0;;;9.07;56.53
77749;BME280;66938;52.084;5.228;2023-04-25T08:09:07;101567.0;;;9.02;56.8
77749;BME280;66938;52.084;5.228;2023-04-25T08:10:43;101578.0;;;9.08;58.1
77749;BME280;66938;52.084;5.228;2023-04-25T08:12:19;101578.0;;;9.13;58.35
77749;BME280;66938;52.084;5.228;2023-04-25T08:15:31;101582.0;;;9.18;56.64
77749;BME280;66938;52.084;5.228;2023-04-25T08:17:09;101585.0;;;9.18;57.25
77749;BME280;66938;52.084;5.228;2023-04-25T08:18:44;101582.0;;;9.21;56.52
77749;BME280;66938;52.084;5.228;2023-04-25T08:20:21;101586.0;;;9.23;56.31
77749;BME280;66938;52.084;5.228;2023-04-25T08:23:33;101592.0;;;9.23;55.83
77749;BME280;66938;52.084;5.228;2023-04-25T08:25:09;101586.0;;;9.26;57.08
77749;BME280;66938;52.084;5.228;2023-04-25T08:26:45;101593.0;;;9.34;58.52
77749;BME280;66938;52.084;5.228;2023-04-25T08:29:57;101598.0;;;9.41;55.38
77749;BME280;66938;52.084;5.228;2023-04-25T08:31:34;101596.0;;;9.42;55.31
77749;BME280;66938;52.084;5.228;2023-04-25T08:33:10;101605.0;;;9.4;56.13
77749;BME280;66938;52.084;5.228;2023-04-25T08:36:22;101606.0;;;9.4;56.01
77749;BME280;66938;52.084;5.228;2023-04-25T08:37:58;101618.0;;;9.35;57.67
77749;BME280;66938;52.084;5.228;2023-04-25T08:39:34;101619.0;;;9.38;58.63
77749;BME280;66938;52.084;5.228;2023-04-25T08:41:11;101624.0;;;9.25;57.1
77749;BME280;66938;52.084;5.228;2023-04-25T08:44:26;101623.0;;;9.18;57.89
77749;BME280;66938;52.084;5.228;2023-04-25T08:46:02;101627.0;;;9.05;56.57
77749;BME280;66938;52.084;5.228;2023-04-25T08:47:38;101628.0;;;8.97;57.37
77749;BME280;66938;52.084;5.228;2023-04-25T08:50:55;101633.0;;;9.02;57.02
77749;BME280;66938;52.084;5.228;2023-04-25T08:52:36;101630.0;;;9.03;57.39
77749;BME280;66938;52.084;5.228;2023-04-25T08:54:13;101637.0;;;9.01;55.96
77749;BME280;66938;52.084;5.228;2023-04-25T08:55:52;101640.0;;;9.01;56.88
77749;BME280;66938;52.084;5.228;2023-04-25T08:59:07;101642.0;;;9.05;57.01
77749;BME280;66938;52.084;5.228;2023-04-25T09:00:43;101650.0;;;9.07;56.74
77749;BME280;66938;52.084;5.228;2023-04-25T09:02:21;101645.0;;;9.07;55.52
77749;BME280;66938;52.084;5.228;2023-04-25T09:05:34;101653.0;;;9.05;56.83
77749;BME280;66938;52.084;5.228;2023-04-25T09:07:11;101651.0;;;9.09;54.93
77749;BME280;66938;52.084;5.228;2023-04-25T09:08:50;101651.0;;;9.17;55.39
77749;BME280;66938;52.084;5.228;2023-04-25T09:10:26;101647.0;;;9.16;53.05
77749;BME280;66938;52.084;5.228;2023-04-25T09:13:40;101649.0;;;9.31;54.65
77749;BME280;66938;52.084;5.228;2023-04-25T09:15:16;101647.0;;;9.43;52.88
77749;BME280;66938;52.084;5.228;2023-04-25T09:17:01;101659.0;;;9.47;51.29
77749;BME280;66938;52.084;5.228;2023-04-25T09:20:13;101653.0;;;9.4;48.75
77749;BME280;66938;52.084;5.228;2023-04-25T09:21:50;101662.0;;;9.5;48.77
77749;BME280;66938;52.084;5.228;2023-04-25T09:23:27;101658.0;;;9.52;47.82
77749;BME280;66938;52.084;5.228;2023-04-25T09:26:44;101669.0;;;9.58;49.37
77749;BME280;66938;52.084;5.228;2023-04-25T09:28:24;101665.0;;;9.66;48.34
77749;BME280;66938;52.084;5.228;2023-04-25T09:30:00;101669.0;;;9.77;51.29
77749;BME280;66938;52.084;5.228;2023-04-25T09:31:36;101671.0;;;9.92;52.59
77749;BME280;66938;52.084;5.228;2023-04-25T09:34:51;101671.0;;;9.97;50.53
77749;BME280;66938;52.084;5.228;2023-04-25T09:36:29;101671.0;;;10.08;49.9
77749;BME280;66938;52.084;5.228;2023-04-25T09:38:08;101676.0;;;10.19;50.22
77749;BME280;66938;52.084;5.228;2023-04-25T09:39:45;101687.0;;;10.18;50.13
77749;BME280;66938;52.084;5.228;2023-04-25T09:42:59;101683.0;;;10.29;52.25
77749;BME280;66938;52.084;5.228;2023-04-25T09:44:36;101680.0;;;10.37;52.64
77749;BME280;66938;52.084;5.228;2023-04-25T09:46:12;101685.0;;;10.33;52.58
77749;BME280;66938;52.084;5.228;2023-04-25T09:49:25;101685.0;;;10.41;52.7
77749;BME280;66938;52.084;5.228;2023-04-25T09:51:05;101684.0;;;10.32;52.6
77749;BME280;66938;52.084;5.228;2023-04-25T09:52:43;101697.0;;;10.3;52.88
77749;BME280;66938;52.084;5.228;2023-04-25T09:55:56;101705.0;;;10.21;53.12
77749;BME280;66938;52.084;5.228;2023-04-25T09:57:32;101707.0;;;10.06;53.88
77749;BME280;66938;52.084;5.228;2023-04-25T09:59:09;101699.0;;;10.29;55.77
77749;BME280;66938;52.084;5.228;2023-04-25T10:00:47;101705.0;;;10.37;55.0
77749;BME280;66938;52.084;5.228;2023-04-25T10:04:04;101707.0;;;10.4;53.84
77749;BME280;66938;52.084;5.228;2023-04-25T10:05:43;101712.0;;;10.4;52.46
77749;BME280;66938;52.084;5.228;2023-04-25T10:07:20;101716.0;;;10.41;52.49
77749;BME280;66938;52.084;5.228;2023-04-25T10:10:35;101718.0;;;10.35;52.85
77749;BME280;66938;52.084;5.228;2023-04-25T10:12:13;101721.0;;;10.29;51.93
77749;BME280;66938;52.084;5.228;2023-04-25T10:13:49;101718.0;;;10.17;52.68
77749;BME280;66938;52.084;5.228;2023-04-25T10:15:26;101717.0;;;10.28;51.69
77749;BME280;66938;52.084;5.228;2023-04-25T10:18:39;101724.0;;;10.3;51.88
77749;BME280;66938;52.084;5.228;2023-04-25T10:20:15;101721.0;;;10.27;52.54
77749;BME280;66938;52.084;5.228;2023-04-25T10:21:56;101726.0;;;10.23;51.16
77749;BME280;66938;52.084;5.228;2023-04-25T10:25:12;101727.0;;;10.19;51.39
77749;BME280;66938;52.084;5.228;2023-04-25T10:26:49;101723.0;;;10.23;53.16
77749;BME280;66938;52.084;5.228;2023-04-25T10:28:26;101718.0;;;10.29;52.64
77749;BME280;66938;52.084;5.228;2023-04-25T10:30:03;101720.0;;;10.3;54.54
77749;BME280;66938;52.084;5.228;2023-04-25T10:33:29;101723.0;;;10.43;53.45
77749;BME280;66938;52.084;5.228;2023-04-25T10:35:13;101724.0;;;10.46;50.46
77749;BME280;66938;52.084;5.228;2023-04-25T10:36:50;101717.0;;;10.58;50.68
77749;BME280;66938;52.084;5.228;2023-04-25T10:38:27;101722.0;;;10.74;50.71
77749;BME280;66938;52.084;5.228;2023-04-25T10:41:46;101725.0;;;10.92;50.23
77749;BME280;66938;52.084;5.228;2023-04-25T10:43:38;101722.0;;;11.14;49.07
77749;BME280;66938;52.084;5.228;2023-04-25T10:45:15;101726.0;;;11.31;48.32
77749;BME280;66938;52.084;5.228;2023-04-25T10:46:51;101726.0;;;11.34;46.32
77749;BME280;66938;52.084;5.228;2023-04-25T10:50:05;101726.0;;;11.39;45.42
77749;BME280;66938;52.084;5.228;2023-04-25T10:51:43;101728.0;;;11.44;46.41
77749;BME280;66938;52.084;5.228;2023-04-25T10:53:24;101731.0;;;11.47;44.79
77749;BME280;66938;52.084;5.228;2023-04-25T10:56:42;101732.0;;;11.46;46.19
77749;BME280;66938;52.084;5.228;2023-04-25T10:58:21;101728.0;;;11.38;44.9
77749;BME280;66938;52.084;5.228;2023-04-25T11:00:00;101730.0;;;11.4;45.12
77749;BME280;66938;52.084;5.228;2023-04-25T11:01:42;101730.0;;;11.41;44.38
77749;BME280;66938;52.084;5.228;2023-04-25T11:04:59;101723.0;;;11.49;43.98
77749;BME280;66938;52.084;5.228;2023-04-25T11:06:43;101722.0;;;11.66;45.07
77749;BME280;66938;52.084;5.228;2023-04-25T11:08:47;101721.0;;;11.85;46.15
77749;BME280;66938;52.084;5.228;2023-04-25T11:10:27;101721.0;;;12.09;46.4
77749;BME280;66938;52.084;5.228;2023-04-25T11:12:04;101731.0;;;12.14;46.02
77749;BME280;66938;52.084;5.228;2023-04-25T11:15:16;101740.0;;;11.83;48.59